Suffield, Connecticut
Current Conditions -  °F | °C
As of 5:51 PM on Thursday 18 Dec 2014 (Local Time) from KBDL Reporting Station
Broken Clouds Broken Clouds  
Wind Chill: -2°   Ceiling: 3300
Heat Index:   Visibility: 10mi
Dew Point: -4°   Wind: 14mph
Humidity: 62%   Direction: 310°NW
Pressure: 29.9"   Gusts: 20mph
Location:  41.98°N, 72.65°W
Report Text: KBDL 182251Z 31012G17KT 10SM BKN033 03/M04 A2990 RMK AO2 SLP126 T00281039
Loading
Personal Weather Stations






























Interactive Weather Map New forecast layout! Learn more

10-Day Weather Forecast

Advertisements
Track Severe Weather on mobile